Time;durP1;ratioP1;P1;durP2;ratioP2;P2;SDS_P1;SDS_P2;PMS_P1;PMS_P2;Temp;Humidity;BMP_temperature;BMP_pressure;BME280_temperature;BME280_humidity;BME280_pressure;Samples;Min_cycle;Max_cycle;Signal;HPM_P1;HPM_P2
2022/05/07 00:02:18;;;;;;;9.43;2.00;;;;;;;41.74;7.78;100656.47;5102958;27;20028;-60
2022/05/07 00:04:45;;;;;;;10.02;2.50;;;;;;;42.15;7.61;100661.34;5101790;27;20039;-59
2022/05/07 00:07:12;;;;;;;17.27;2.95;;;;;;;40.36;8.92;100672.84;5111165;27;20046;-60
2022/05/07 00:09:39;;;;;;;14.90;2.80;;;;;;;41.13;8.77;100670.72;5082155;28;20028;-60
2022/05/07 00:12:06;;;;;;;16.05;2.80;;;;;;;40.57;9.34;100668.31;5099622;27;20055;-60
2022/05/07 00:14:34;;;;;;;12.48;2.63;;;;;;;41.40;8.87;100658.47;5100967;27;20178;-60
2022/05/07 00:19:46;;;;;;;14.77;2.60;;;;;;;41.89;8.70;100663.06;5106186;28;20054;-60
2022/05/07 00:22:14;;;;;;;9.13;2.40;;;;;;;40.47;9.47;100665.47;5111975;27;20043;-60
2022/05/07 00:24:41;;;;;;;14.27;2.80;;;;;;;41.42;8.65;100660.84;5109976;27;20039;-59
2022/05/07 00:27:08;;;;;;;17.15;2.40;;;;;;;41.34;8.84;100658.34;5109152;27;20027;-59
2022/05/07 00:29:35;;;;;;;13.60;2.55;;;;;;;41.97;8.92;100644.28;5082592;28;20058;-60
2022/05/07 00:32:03;;;;;;;14.65;2.65;;;;;;;42.09;8.39;100651.09;5112523;27;20027;-60
2022/05/07 00:34:30;;;;;;;13.27;2.65;;;;;;;41.14;8.95;100654.41;5090327;27;20046;-60
2022/05/07 00:36:56;;;;;;;14.25;2.58;;;;;;;40.94;8.88;100647.16;5109347;28;20020;-60
2022/05/07 00:39:25;;;;;;;54.53;3.92;;;;;;;40.53;8.95;100654.22;5104918;27;20031;-60
2022/05/07 00:41:53;;;;;;;14.07;2.53;;;;;;;40.40;8.74;100648.69;5102252;27;20039;-60
2022/05/07 00:44:22;;;;;;;13.63;2.60;;;;;;;40.21;9.13;100647.03;5108475;27;20097;-60
2022/05/07 00:46:49;;;;;;;10.98;2.00;;;;;;;39.36;9.27;100661.84;5088751;28;20504;-60
2022/05/07 00:49:18;;;;;;;12.50;2.33;;;;;;;38.91;9.78;100654.56;5106525;27;20035;-59
2022/05/07 00:51:46;;;;;;;12.45;2.20;;;;;;;38.21;10.35;100658.63;5105039;27;20028;-60
2022/05/07 00:54:13;;;;;;;12.90;2.50;;;;;;;38.63;9.77;100656.38;5086873;27;20027;-60
2022/05/07 00:59:29;;;;;;;15.23;2.40;;;;;;;37.79;10.52;100664.41;5376395;23;20091;-63
2022/05/07 01:01:57;;;;;;;20.85;2.30;;;;;;;37.61;10.83;100661.31;4946881;28;20039;-59
2022/05/07 01:04:24;;;;;;;7.13;2.20;;;;;;;37.25;11.12;100673.72;4958831;28;20030;-61
2022/05/07 01:06:54;;;;;;;13.18;2.42;;;;;;;37.49;10.90;100657.22;4958124;28;20067;-62
2022/05/07 01:09:21;;;;;;;11.18;2.33;;;;;;;37.80;10.68;100651.81;4931463;28;20308;-62
2022/05/07 01:11:49;;;;;;;17.42;2.35;;;;;;;37.59;10.97;100660.97;4939581;28;20039;-61
2022/05/07 01:14:16;;;;;;;13.52;2.65;;;;;;;37.51;11.03;100661.19;4968986;28;20082;-61
2022/05/07 01:16:44;;;;;;;13.50;2.40;;;;;;;37.27;11.22;100665.56;4943840;28;20075;-62
2022/05/07 01:19:10;;;;;;;10.23;2.15;;;;;;;37.46;10.83;100666.63;4961916;28;20023;-62
2022/05/07 01:21:37;;;;;;;12.00;2.47;;;;;;;37.07;11.31;100668.56;4951675;28;20038;-62
2022/05/07 01:24:06;;;;;;;10.00;2.28;;;;;;;36.71;11.13;100651.72;4940819;28;20109;-61
2022/05/07 01:26:36;;;;;;;9.90;2.38;;;;;;;36.36;11.83;100673.28;4949716;29;20043;-62
2022/05/07 01:29:07;;;;;;;12.05;2.40;;;;;;;36.33;11.88;100673.38;4947459;28;20593;-62
2022/05/07 01:31:39;;;;;;;12.77;2.95;;;;;;;36.64;11.60;100659.63;4953318;28;20131;-62
2022/05/07 01:34:06;;;;;;;17.52;2.92;;;;;;;36.39;11.99;100663.91;4970594;28;20035;-62
2022/05/07 01:36:36;;;;;;;7.45;2.28;;;;;;;36.59;11.46;100660.94;4937369;29;20031;-61
2022/05/07 01:39:08;;;;;;;17.60;3.00;;;;;;;36.39;11.43;100663.13;4937559;29;20070;-61
2022/05/07 01:41:35;;;;;;;10.15;2.28;;;;;;;36.20;12.10;100673.25;4969367;28;20118;-61
2022/05/07 01:44:03;;;;;;;14.32;2.50;;;;;;;35.86;12.66;100671.66;4940714;28;20047;-62
2022/05/07 01:49:21;;;;;;;11.48;2.50;;;;;;;35.67;12.17;100670.44;4949411;28;20042;-61
2022/05/07 01:51:48;;;;;;;16.25;2.70;;;;;;;35.32;12.58;100683.28;4940740;28;20062;-62
2022/05/07 01:54:16;;;;;;;18.83;2.55;;;;;;;35.32;12.38;100676.84;4952472;29;20019;-62
2022/05/07 01:56:47;;;;;;;11.30;2.30;;;;;;;35.06;11.97;100679.38;4945766;28;20039;-62
2022/05/07 01:59:14;;;;;;;16.73;2.33;;;;;;;34.97;11.93;100673.50;4925638;29;20458;-62
2022/05/07 02:01:40;;;;;;;14.70;2.70;;;;;;;34.93;12.09;100666.34;4951647;28;20396;-60
2022/05/07 02:04:10;;;;;;;13.93;2.80;;;;;;;34.58;12.39;100679.06;4940539;28;20031;-62
2022/05/07 02:06:36;;;;;;;17.13;2.78;;;;;;;34.39;12.46;100681.41;4966642;28;20023;-62
2022/05/07 02:09:03;;;;;;;19.42;2.50;;;;;;;34.19;12.32;100683.31;4947720;28;20386;-61
2022/05/07 02:11:33;;;;;;;17.02;3.15;;;;;;;34.21;12.61;100678.06;4942019;29;20035;-60
2022/05/07 02:14:00;;;;;;;27.25;3.75;;;;;;;34.24;12.83;100682.84;4953998;28;20046;-63
2022/05/07 02:16:27;;;;;;;15.73;2.70;;;;;;;33.88;12.77;100691.06;4956137;28;20019;-63
2022/05/07 02:18:54;;;;;;;23.10;2.88;;;;;;;33.56;13.48;100688.66;4964450;28;20552;-60
2022/05/07 02:21:21;;;;;;;16.50;3.15;;;;;;;33.39;12.91;100700.94;4967250;28;20073;-60
2022/05/07 02:23:48;;;;;;;21.45;3.08;;;;;;;33.07;13.37;100693.66;4940275;28;20039;-62
2022/05/07 02:26:15;;;;;;;19.80;3.22;;;;;;;33.22;13.30;100703.56;4951956;28;20093;-61
2022/05/07 02:28:42;;;;;;;21.75;3.67;;;;;;;33.06;13.61;100692.06;4948508;28;20090;-62
2022/05/07 02:31:10;;;;;;;20.73;3.50;;;;;;;32.88;13.95;100700.72;4950897;28;20063;-64
2022/05/07 02:33:37;;;;;;;28.50;3.80;;;;;;;32.67;14.01;100700.88;4940694;29;20036;-61
2022/05/07 02:36:09;;;;;;;23.23;3.70;;;;;;;32.46;13.48;100707.50;4956547;29;20093;-61
2022/05/07 02:38:38;;;;;;;22.50;3.50;;;;;;;32.32;13.64;100710.44;4947389;28;20030;-63
2022/05/07 02:43:53;;;;;;;42.78;3.97;;;;;;;32.02;14.29;100711.03;4956412;28;20485;-61
2022/05/07 02:46:20;;;;;;;24.85;3.40;;;;;;;32.01;14.05;100709.41;4945147;28;20027;-61
2022/05/07 02:48:47;;;;;;;26.30;3.70;;;;;;;31.64;14.48;100707.19;4951496;29;20042;-62
2022/05/07 02:51:18;;;;;;;26.63;3.55;;;;;;;31.44;14.37;100713.31;4937318;28;20031;-61
2022/05/07 02:53:45;;;;;;;24.58;3.40;;;;;;;31.24;15.01;100706.56;4960799;28;20480;-63
2022/05/07 02:56:11;;;;;;;32.50;4.13;;;;;;;31.16;15.03;100718.97;4973295;28;20027;-63
2022/05/07 02:58:38;;;;;;;23.05;3.00;;;;;;;31.27;15.21;100728.22;4964839;28;20034;-63
2022/05/07 03:01:05;;;;;;;18.77;2.80;;;;;;;31.23;15.34;100730.22;4955394;28;20054;-62
2022/05/07 03:03:32;;;;;;;23.48;3.10;;;;;;;31.31;15.26;100737.44;4945228;28;20260;-62
2022/05/07 03:06:04;;;;;;;26.38;3.03;;;;;;;31.24;15.45;100740.25;4955881;28;20033;-62
2022/05/07 03:08:34;;;;;;;27.05;3.13;;;;;;;31.16;15.94;100741.44;4944511;28;20034;-61
2022/05/07 03:11:01;;;;;;;29.20;3.72;;;;;;;30.83;16.17;100742.69;4966500;28;20114;-62
2022/05/07 03:13:30;;;;;;;42.97;3.17;;;;;;;30.65;16.11;100754.72;4938356;28;20038;-62
2022/05/07 03:15:57;;;;;;;32.90;3.85;;;;;;;30.41;16.37;100754.72;4943222;28;20031;-61
2022/05/07 03:18:23;;;;;;;24.88;3.63;;;;;;;30.51;16.54;100759.50;4953716;29;20392;-61
2022/05/07 03:20:50;;;;;;;27.23;3.63;;;;;;;30.36;16.42;100758.72;4965892;28;20366;-61
2022/05/07 03:23:19;;;;;;;33.80;4.07;;;;;;;30.42;16.77;100767.53;4946547;29;20024;-61
2022/05/07 03:25:48;;;;;;;28.65;3.33;;;;;;;30.22;16.40;100755.88;4955473;28;20039;-62
2022/05/07 03:28:15;;;;;;;24.48;3.45;;;;;;;30.34;16.71;100763.88;4943753;28;20027;-59
2022/05/07 03:30:42;;;;;;;19.23;3.17;;;;;;;29.96;17.00;100760.59;4958135;28;20057;-61
2022/05/07 03:33:09;;;;;;;30.13;3.72;;;;;;;29.62;17.35;100774.06;4975672;28;20041;-61
2022/05/07 03:35:43;;;;;;;49.35;3.95;;;;;;;29.41;17.53;100773.94;4943574;29;20493;-61
2022/05/07 03:38:10;;;;;;;31.15;4.18;;;;;;;29.37;17.38;100781.53;4926615;28;20125;-60
2022/05/07 03:40:45;;;;;;;23.80;3.58;;;;;;;29.84;17.25;100779.78;4950751;29;20030;-61
2022/05/07 03:43:14;;;;;;;23.65;4.20;;;;;;;29.76;17.04;100776.13;4958754;28;20093;-61
2022/05/07 03:45:40;;;;;;;26.23;3.90;;;;;;;29.55;17.87;100788.03;4943136;29;20393;-60
2022/05/07 03:48:09;;;;;;;61.70;7.28;;;;;;;29.21;17.97;100783.81;4955182;28;20477;-60
2022/05/07 03:50:37;;;;;;;37.63;5.82;;;;;;;29.36;18.23;100791.13;4946083;28;20129;-61
2022/05/07 03:55:50;;;;;;;26.70;5.10;;;;;;;29.37;17.72;100798.31;4955131;28;20512;-63
2022/05/07 03:58:27;;;;;;;27.63;5.13;;;;;;;28.95;18.66;100788.44;4944750;28;20499;-61
2022/05/07 04:00:56;;;;;;;35.05;5.55;;;;;;;28.76;18.82;100794.25;4957551;28;20074;-61
2022/05/07 04:03:24;;;;;;;41.50;5.60;;;;;;;28.57;18.85;100807.28;4945245;29;20031;-60
2022/05/07 04:05:55;;;;;;;32.65;4.97;;;;;;;28.43;19.15;100801.53;4972371;28;20125;-61
2022/05/07 04:08:24;;;;;;;26.25;5.40;;;;;;;28.28;19.23;100806.19;4944012;28;20101;-60
2022/05/07 04:10:51;;;;;;;39.03;5.20;;;;;;;28.24;19.60;100796.94;4949447;28;20023;-61
2022/05/07 04:13:22;;;;;;;33.35;4.97;;;;;;;28.09;19.41;100805.53;4952099;28;20042;-61
2022/05/07 04:15:54;;;;;;;27.30;4.90;;;;;;;28.02;19.80;100808.25;4942094;28;20409;-61
2022/05/07 04:18:24;;;;;;;38.63;5.10;;;;;;;27.93;19.67;100814.13;4952579;28;20027;-62
2022/05/07 04:20:55;;;;;;;21.58;4.50;;;;;;;28.55;19.19;100814.44;4948051;28;20031;-61
2022/05/07 04:23:23;;;;;;;25.10;3.72;;;;;;;28.61;19.03;100820.50;4945116;28;20039;-61
2022/05/07 04:25:51;;;;;;;34.63;4.93;;;;;;;28.33;20.06;100830.19;4954509;28;20141;-62
2022/05/07 04:28:20;;;;;;;26.30;4.13;;;;;;;28.00;20.02;100823.38;4943426;28;20046;-62
2022/05/07 04:30:50;;;;;;;29.15;4.50;;;;;;;27.95;19.60;100829.31;4948585;28;20470;-62
2022/05/07 04:33:22;;;;;;;29.55;4.10;;;;;;;27.77;20.11;100819.09;4951454;28;20053;-61
2022/05/07 04:35:53;;;;;;;33.33;4.43;;;;;;;27.61;20.11;100822.06;4941860;28;20126;-60
2022/05/07 04:38:22;;;;;;;22.05;3.80;;;;;;;27.50;20.28;100823.91;4952601;29;20046;-60
2022/05/07 04:40:49;;;;;;;22.23;3.92;;;;;;;27.33;20.45;100823.28;4964183;28;20058;-61
2022/05/07 04:43:21;;;;;;;22.13;4.15;;;;;;;27.26;20.77;100813.97;4945257;29;20058;-61
2022/05/07 04:45:48;;;;;;;22.92;4.18;;;;;;;27.14;20.70;100831.75;4954195;28;20038;-59
2022/05/07 04:48:17;;;;;;;26.33;4.97;;;;;;;27.06;20.82;100835.59;4935275;29;20023;-60
2022/05/07 04:50:44;;;;;;;34.72;5.55;;;;;;;27.01;21.38;100839.50;4952076;28;20035;-61
2022/05/07 04:53:28;;;;;;;46.10;7.05;;;;;;;26.97;20.89;100832.25;4942753;29;20031;-61
2022/05/07 04:56:01;;;;;;;30.40;5.10;;;;;;;27.03;20.78;100825.19;4954045;28;20399;-60
2022/05/07 04:58:31;;;;;;;29.25;5.70;;;;;;;26.91;20.78;100826.16;4943995;28;20031;-62
2022/05/07 05:00:59;;;;;;;37.03;5.65;;;;;;;26.76;21.19;100839.06;4946811;28;20402;-61
2022/05/07 05:03:26;;;;;;;27.25;5.68;;;;;;;26.69;21.42;100833.34;4968919;28;20097;-60
2022/05/07 05:06:17;;;;;;;30.55;6.88;;;;;;;26.57;21.61;100839.13;4927349;28;20114;-61
2022/05/07 05:09:05;;;;;;;51.20;7.00;;;;;;;26.63;21.42;100839.63;4949219;28;20389;-62
2022/05/07 05:11:37;;;;;;;44.72;6.22;;;;;;;26.62;21.53;100838.81;4940547;29;20036;-62
2022/05/07 05:16:50;;;;;;;41.55;8.00;;;;;;;26.46;21.65;100832.53;4944727;28;20034;-62
2022/05/07 05:19:19;;;;;;;39.72;8.10;;;;;;;26.45;21.51;100836.50;4942486;29;20106;-63
2022/05/07 05:21:46;;;;;;;40.28;7.53;;;;;;;26.36;22.17;100835.91;4951537;28;20039;-60
2022/05/07 05:24:21;;;;;;;30.05;7.32;;;;;;;26.32;21.98;100821.09;4959311;28;20149;-61
2022/05/07 05:26:48;;;;;;;28.63;7.03;;;;;;;26.27;21.83;100830.56;4948475;28;20035;-61
2022/05/07 05:29:20;;;;;;;37.78;7.05;;;;;;;26.48;22.16;100828.19;4967597;28;20077;-62
2022/05/07 05:31:48;;;;;;;36.42;7.20;;;;;;;26.47;21.86;100823.00;4940532;28;20039;-62
2022/05/07 05:34:25;;;;;;;30.35;7.18;;;;;;;26.33;22.35;100822.69;4951379;29;20023;-60
2022/05/07 05:36:54;;;;;;;33.92;7.55;;;;;;;26.23;22.41;100820.53;4946850;28;20038;-63
2022/05/07 05:39:23;;;;;;;39.13;7.78;;;;;;;26.11;22.59;100813.13;4943771;28;20042;-60
2022/05/07 05:41:52;;;;;;;30.33;7.70;;;;;;;26.27;22.67;100818.59;4953262;28;20035;-61
2022/05/07 05:44:19;;;;;;;35.70;6.80;;;;;;;26.31;22.45;100809.13;4941852;28;20030;-60
2022/05/07 05:46:46;;;;;;;38.53;7.47;;;;;;;26.12;22.80;100825.88;4965815;28;20062;-63
2022/05/07 05:49:13;;;;;;;24.33;6.28;;;;;;;26.14;22.49;100806.81;4949154;28;20031;-61
2022/05/07 05:51:43;;;;;;;28.98;6.47;;;;;;;26.56;22.14;100815.19;4940986;29;20039;-62
2022/05/07 05:54:10;;;;;;;26.45;6.47;;;;;;;26.39;22.18;100810.09;4925404;28;20037;-62
2022/05/07 05:56:39;;;;;;;25.20;5.50;;;;;;;26.19;22.82;100814.84;4949398;29;20039;-63
2022/05/07 05:59:07;;;;;;;29.35;6.53;;;;;;;26.03;23.12;100798.25;4948050;28;20027;-62
2022/05/07 06:01:46;;;;;;;32.75;5.78;;;;;;;25.94;23.12;100808.81;4932609;28;20043;-61
2022/05/07 06:04:27;;;;;;;87.88;7.78;;;;;;;26.00;23.07;100800.94;4969656;28;20086;-61
2022/05/07 06:06:57;;;;;;;35.97;5.85;;;;;;;25.90;23.44;100803.16;4922702;29;20138;-61
2022/05/07 06:09:29;;;;;;;49.22;6.13;;;;;;;25.77;23.78;100798.91;4937323;29;20046;-61
2022/05/07 06:11:57;;;;;;;35.97;5.57;;;;;;;25.71;23.85;100802.34;4956658;28;20505;-61
2022/05/07 06:14:26;;;;;;;42.92;5.63;;;;;;;25.65;23.86;100810.13;4933104;29;20059;-61
2022/05/07 06:16:58;;;;;;;22.08;5.63;;;;;;;25.73;24.48;100805.56;4947091;28;20521;-61
2022/05/07 06:19:26;;;;;;;39.78;5.72;;;;;;;25.78;24.29;100800.53;4949631;28;20284;-61
2022/05/07 06:21:54;;;;;;;85.28;8.27;;;;;;;25.84;24.46;100806.59;4906654;28;20031;-61
2022/05/07 06:27:32;;;;;;;27.73;5.72;;;;;;;26.00;24.31;100807.31;4933029;29;20489;-62
2022/05/07 06:30:06;;;;;;;25.77;4.75;;;;;;;25.75;24.31;100801.25;4932442;28;20035;-61
2022/05/07 06:32:43;;;;;;;113.15;8.73;;;;;;;25.54;25.10;100815.50;4937330;29;20035;-61
2022/05/07 06:35:10;;;;;;;154.43;9.82;;;;;;;25.62;24.33;100808.09;4934528;29;20493;-61
2022/05/07 06:37:52;;;;;;;23.23;5.00;;;;;;;25.52;24.67;100809.47;4930441;28;20039;-61
2022/05/07 06:40:22;;;;;;;34.03;6.45;;;;;;;25.46;24.95;100810.13;4934289;29;20031;-60
2022/05/07 06:42:50;;;;;;;26.17;6.22;;;;;;;25.67;24.46;100804.19;4936596;29;20050;-62
2022/05/07 06:45:27;;;;;;;26.13;6.18;;;;;;;25.50;23.72;100806.25;4927760;29;20035;-60
2022/05/07 06:47:55;;;;;;;31.63;6.25;;;;;;;25.53;23.76;100802.75;4923683;28;20035;-60
2022/05/07 06:50:23;;;;;;;37.63;6.85;;;;;;;25.72;24.21;100798.41;4936112;29;20086;-61
2022/05/07 06:52:50;;;;;;;24.67;6.18;;;;;;;25.49;24.67;100793.50;4933828;29;20127;-60
2022/05/07 06:55:17;;;;;;;26.98;5.97;;;;;;;25.21;26.59;100804.00;4943639;28;20753;-61
2022/05/07 06:57:45;;;;;;;16.52;5.20;;;;;;;25.22;26.70;100800.84;4943950;28;20042;-62
2022/05/07 07:00:14;;;;;;;25.02;5.63;;;;;;;24.99;27.16;100797.94;4947969;28;20039;-61
2022/05/07 07:02:41;;;;;;;28.25;5.45;;;;;;;24.87;27.29;100806.31;4949965;28;20090;-60
2022/05/07 07:05:08;;;;;;;27.25;6.18;;;;;;;24.76;27.19;100802.47;4950920;28;20031;-61
2022/05/07 07:07:36;;;;;;;30.83;7.25;;;;;;;24.75;27.30;100803.63;4943070;28;20135;-61
2022/05/07 07:10:03;;;;;;;24.52;5.70;;;;;;;24.81;27.51;100807.78;4951130;28;20023;-61
2022/05/07 07:12:30;;;;;;;26.52;5.53;;;;;;;24.97;27.11;100800.22;4946135;28;20040;-60
2022/05/07 07:14:57;;;;;;;21.55;5.28;;;;;;;24.85;27.32;100799.53;4951769;28;20031;-59
2022/05/07 07:17:25;;;;;;;30.52;4.78;;;;;;;24.83;27.58;100794.31;4941647;28;20036;-61
2022/05/07 07:19:52;;;;;;;27.88;4.85;;;;;;;24.85;27.83;100793.97;4936135;28;20394;-62
2022/05/07 07:22:19;;;;;;;19.20;5.03;;;;;;;24.73;27.95;100794.84;4951117;28;20035;-62
2022/05/07 07:24:45;;;;;;;28.92;4.93;;;;;;;24.81;27.16;100787.50;4947140;28;20032;-63
2022/05/07 07:27:14;;;;;;;24.80;4.70;;;;;;;24.62;28.26;100793.78;4941739;28;20122;-63
2022/05/07 07:29:44;;;;;;;26.83;5.05;;;;;;;24.52;28.35;100795.13;4940902;28;20110;-62
2022/05/07 07:32:10;;;;;;;24.38;4.63;;;;;;;24.35;28.91;100796.25;4942724;28;20046;-61
2022/05/07 07:34:37;;;;;;;20.15;4.57;;;;;;;24.20;29.22;100782.31;4941871;28;20154;-63
2022/05/07 07:37:04;;;;;;;22.90;4.93;;;;;;;24.20;29.46;100783.09;4942380;28;20528;-64
2022/05/07 07:39:32;;;;;;;24.95;4.97;;;;;;;24.07;29.51;100784.34;4939013;28;20039;-62
2022/05/07 07:42:01;;;;;;;24.50;4.68;;;;;;;23.94;29.63;100780.00;4943805;28;20034;-63
2022/05/07 07:44:27;;;;;;;29.75;4.90;;;;;;;23.93;29.96;100783.94;4946193;28;20073;-63
2022/05/07 07:49:40;;;;;;;26.20;4.90;;;;;;;23.88;30.02;100789.72;4943154;28;20040;-63
2022/05/07 07:52:06;;;;;;;22.13;4.82;;;;;;;23.93;29.95;100772.84;4942029;28;20408;-61
2022/05/07 07:54:33;;;;;;;24.65;5.28;;;;;;;24.30;29.72;100765.16;4945925;28;20389;-63
2022/05/07 07:57:02;;;;;;;21.70;4.82;;;;;;;24.22;30.32;100769.66;4943916;28;20024;-63
2022/05/07 07:59:30;;;;;;;20.52;5.07;;;;;;;24.28;30.27;100767.47;4942909;28;20043;-62
2022/05/07 08:01:57;;;;;;;33.58;6.03;;;;;;;24.06;30.77;100774.41;4943777;28;20028;-61
2022/05/07 08:04:27;;;;;;;21.40;5.03;;;;;;;23.93;31.24;100764.53;4929653;29;20092;-62
2022/05/07 08:12:25;;;;;;;33.05;9.73;;;;;;;24.27;30.67;100771.41;4945257;28;19969;-62
2022/05/07 08:14:51;;;;;;;37.65;10.32;;;;;;;24.15;31.38;100765.91;4943633;28;20474;-60
2022/05/07 08:17:18;;;;;;;156.10;13.70;;;;;;;23.84;31.85;100752.75;4944021;28;20058;-61
2022/05/07 08:19:45;;;;;;;42.72;9.65;;;;;;;24.13;31.87;100760.72;4942605;28;20544;-62
2022/05/07 08:22:12;;;;;;;30.30;8.05;;;;;;;24.07;32.84;100762.16;4947432;28;20043;-63
2022/05/07 08:24:39;;;;;;;32.53;7.15;;;;;;;24.23;32.79;100757.41;4943585;28;20020;-62
2022/05/07 08:27:06;;;;;;;34.85;7.57;;;;;;;24.27;32.91;100754.75;4965942;28;20106;-61
2022/05/07 08:29:33;;;;;;;28.02;7.68;;;;;;;24.27;33.59;100754.75;4960353;28;20098;-60
2022/05/07 08:32:00;;;;;;;26.50;6.90;;;;;;;24.14;33.71;100744.84;4973424;28;20042;-60
2022/05/07 08:34:27;;;;;;;24.25;7.75;;;;;;;23.87;34.26;100763.13;4969098;28;20031;-60
2022/05/07 08:36:54;;;;;;;24.77;8.55;;;;;;;23.85;35.40;100754.38;4965037;28;20035;-60
2022/05/07 08:39:21;;;;;;;28.52;6.95;;;;;;;23.87;36.49;100754.81;4961451;28;20098;-61
2022/05/07 08:41:49;;;;;;;26.73;10.57;;;;;;;23.76;37.35;100744.22;4971776;28;20061;-60
2022/05/07 08:44:16;;;;;;;24.17;12.13;;;;;;;23.63;37.29;100742.66;4959523;28;20540;-60
2022/05/07 08:46:43;;;;;;;29.42;8.93;;;;;;;23.75;37.67;100739.84;4967097;28;20426;-60
2022/05/07 08:49:12;;;;;;;20.50;6.05;;;;;;;23.53;37.94;100743.13;4967110;28;20022;-61
2022/05/07 08:51:41;;;;;;;19.42;5.07;;;;;;;23.42;37.98;100742.00;4959146;28;20039;-60
2022/05/07 08:54:10;;;;;;;22.35;4.78;;;;;;;23.57;37.96;100730.22;4971253;28;20027;-61
2022/05/07 08:56:37;;;;;;;18.10;4.30;;;;;;;23.67;37.46;100728.88;4962265;28;20035;-61
2022/05/07 08:59:03;;;;;;;24.58;4.78;;;;;;;23.47;37.61;100730.66;4963924;28;20027;-60
2022/05/07 09:01:31;;;;;;;22.80;5.60;;;;;;;23.41;37.57;100732.88;4968654;28;20501;-61
2022/05/07 09:04:09;;;;;;;22.25;6.90;;;;;;;23.46;37.52;100726.28;4953041;29;20035;-60
2022/05/07 09:06:37;;;;;;;19.25;7.80;;;;;;;23.28;37.86;100725.75;4962039;28;20089;-59
2022/05/07 09:09:06;;;;;;;27.67;9.52;;;;;;;23.42;37.75;100720.63;4967358;28;20030;-60
2022/05/07 09:11:42;;;;;;;24.83;9.88;;;;;;;23.29;37.54;100721.00;4959936;28;20489;-60
2022/05/07 09:14:09;;;;;;;26.02;9.75;;;;;;;23.35;37.64;100720.44;4965669;28;20496;-60
2022/05/07 09:16:38;;;;;;;19.95;7.95;;;;;;;23.33;37.69;100721.91;4967176;28;20445;-60
2022/05/07 09:19:05;;;;;;;25.77;7.10;;;;;;;23.30;37.56;100715.09;4965765;28;20042;-60
2022/05/07 09:21:32;;;;;;;27.30;6.75;;;;;;;23.28;37.21;100720.19;4959269;28;20105;-59
2022/05/07 09:23:59;;;;;;;26.80;6.22;;;;;;;23.10;37.33;100725.19;4969489;28;20081;-59
2022/05/07 09:26:30;;;;;;;23.88;6.55;;;;;;;23.13;37.02;100724.50;4958847;28;20033;-60
2022/05/07 09:28:58;;;;;;;127.85;9.38;;;;;;;23.20;37.18;100735.81;4962824;28;20043;-59
2022/05/07 09:31:30;;;;;;;21.52;6.43;;;;;;;23.05;37.53;100733.78;4958878;28;20033;-60
2022/05/07 09:36:46;;;;;;;16.15;5.90;;;;;;;22.98;37.11;100727.19;4959880;28;20042;-59
2022/05/07 09:39:17;;;;;;;21.65;6.20;;;;;;;22.88;37.38;100731.25;4960069;28;20031;-60
2022/05/07 09:41:44;;;;;;;24.10;6.57;;;;;;;22.99;36.65;100734.38;4964178;28;20108;-59
2022/05/07 09:44:12;;;;;;;21.58;6.00;;;;;;;22.92;36.86;100730.19;4941337;28;20500;-59
2022/05/07 09:46:40;;;;;;;19.45;6.18;;;;;;;22.57;37.46;100735.34;4966444;28;20034;-59
2022/05/07 09:49:08;;;;;;;18.98;5.65;;;;;;;22.49;37.03;100732.72;4965488;28;20038;-60
2022/05/07 09:51:35;;;;;;;22.42;5.07;;;;;;;22.51;36.83;100725.66;4958855;28;20393;-60
2022/05/07 09:59:33;;;;;;;22.55;5.07;;;;;;;22.72;35.51;100733.88;4959260;28;20047;-60
2022/05/07 10:02:04;;;;;;;16.67;5.15;;;;;;;22.60;35.48;100729.13;4972042;28;20042;-60
2022/05/07 10:04:49;;;;;;;67.43;7.72;;;;;;;22.40;38.15;100732.81;4967409;28;20045;-59
2022/05/07 10:07:30;;;;;;;;;;;;;;;22.28;37.26;100724.50;4956359;28;20066;-60
2022/05/07 10:10:19;;;;;;;19.38;5.15;;;;;;;22.17;38.40;100726.06;4970427;28;19918;-60
2022/05/07 10:12:47;;;;;;;21.90;5.75;;;;;;;22.15;37.20;100728.38;4962652;28;20035;-60
2022/05/07 10:15:23;;;;;;;22.00;6.78;;;;;;;22.16;37.55;100741.06;4961599;28;20117;-60
2022/05/07 10:18:06;;;;;;;28.35;7.15;;;;;;;22.19;37.35;100734.84;4962219;28;20039;-61
2022/05/07 10:20:41;;;;;;;25.30;7.18;;;;;;;22.23;38.71;100741.31;4966981;28;20145;-60
2022/05/07 10:23:09;;;;;;;19.42;7.40;;;;;;;21.98;37.50;100735.69;4965562;28;20034;-60
2022/05/07 10:25:38;;;;;;;23.15;7.47;;;;;;;22.01;36.84;100728.66;4958567;28;20042;-60
2022/05/07 10:28:13;;;;;;;21.67;9.52;;;;;;;21.82;36.99;100737.47;4973065;28;20035;-60
2022/05/07 10:30:50;;;;;;;29.13;10.48;;;;;;;21.77;37.19;100731.34;4965935;28;20035;-60
2022/05/07 10:33:18;;;;;;;23.95;10.95;;;;;;;21.88;37.22;100730.56;4966859;28;20046;-60
2022/05/07 10:35:47;;;;;;;26.38;11.70;;;;;;;21.95;36.92;100733.59;4957499;28;20053;-60
2022/05/07 10:38:37;;;;;;;24.63;11.07;;;;;;;21.82;35.99;100731.94;4968883;28;20031;-59
2022/05/07 10:41:05;;;;;;;26.10;12.05;;;;;;;21.76;36.15;100738.84;4964508;28;20038;-60
2022/05/07 10:43:33;;;;;;;26.80;12.20;;;;;;;21.78;36.50;100736.53;4958588;28;20031;-59
2022/05/07 10:46:03;;;;;;;30.88;12.43;;;;;;;21.78;36.25;100731.00;4969649;28;20111;-61
2022/05/07 10:48:42;;;;;;;29.45;11.65;;;;;;;21.58;36.19;100737.38;4961798;28;20066;-60
2022/05/07 10:51:28;;;;;;;28.73;9.73;;;;;;;21.48;36.11;100737.78;4965290;28;20135;-59
2022/05/07 10:54:05;;;;;;;20.83;9.32;;;;;;;21.45;36.09;100739.25;4973312;28;20043;-60
2022/05/07 10:56:34;;;;;;;26.85;9.27;;;;;;;21.56;35.52;100732.19;4963704;28;20511;-60
2022/05/07 10:59:01;;;;;;;22.45;9.30;;;;;;;21.47;35.80;100730.63;4966350;28;20109;-60
2022/05/07 11:01:31;;;;;;;23.63;8.32;;;;;;;21.59;35.22;100736.22;4971313;28;20382;-60
2022/05/07 11:04:06;;;;;;;18.08;7.45;;;;;;;21.58;35.87;100737.38;4975475;28;20041;-61
2022/05/07 11:06:52;;;;;;;25.20;6.97;;;;;;;21.67;35.16;100729.78;4970297;28;20043;-60
2022/05/07 11:09:22;;;;;;;20.65;6.80;;;;;;;21.64;35.62;100731.28;4959365;28;20507;-61
2022/05/07 11:11:54;;;;;;;20.67;6.82;;;;;;;21.58;35.19;100729.06;4960733;28;20031;-61
2022/05/07 11:14:32;;;;;;;24.02;7.43;;;;;;;21.51;35.83;100724.06;4954137;29;20043;-60
2022/05/07 11:17:01;;;;;;;19.45;7.05;;;;;;;21.62;35.38;100735.53;4967142;28;20085;-60
2022/05/07 11:19:33;;;;;;;18.58;7.10;;;;;;;21.42;35.41;100732.47;4962563;28;20027;-61
2022/05/07 11:22:02;;;;;;;23.58;7.68;;;;;;;21.38;36.43;100733.47;4972976;28;20115;-61
2022/05/07 11:24:31;;;;;;;20.40;6.75;;;;;;;21.44;36.08;100731.31;4963109;28;20023;-62
2022/05/07 11:27:05;;;;;;;15.93;6.90;;;;;;;21.48;35.25;100733.06;4949504;28;20056;-61
2022/05/07 11:29:34;;;;;;;24.10;11.53;;;;;;;21.45;35.21;100728.19;4971682;28;20038;-61
2022/05/07 11:32:04;;;;;;;25.50;13.30;;;;;;;21.25;35.98;100724.28;4940551;28;20031;-61
2022/05/07 11:34:37;;;;;;;22.92;11.15;;;;;;;21.26;35.53;100736.16;4949471;28;20058;-62
2022/05/07 11:37:20;;;;;;;19.30;8.45;;;;;;;21.31;35.52;100733.19;4965616;28;20402;-60
2022/05/07 11:39:57;;;;;;;22.63;8.77;;;;;;;21.17;36.13;100727.06;4972691;28;20097;-61
2022/05/07 11:42:34;;;;;;;;;;;;;;;21.24;36.01;100728.19;4962346;28;20070;-61
2022/05/07 11:45:27;;;;;;;23.10;10.15;;;;;;;21.16;35.58;100731.78;4965746;28;19930;-63
2022/05/07 11:48:23;;;;;;;20.73;9.65;;;;;;;21.05;35.49;100744.41;4972516;28;20505;-61
2022/05/07 11:50:54;;;;;;;24.90;9.65;;;;;;;21.08;35.85;100738.19;4965220;28;20137;-61
2022/05/07 11:53:27;;;;;;;23.98;9.25;;;;;;;21.11;35.95;100741.09;4962864;28;20157;-61
2022/05/07 11:56:08;;;;;;;32.60;9.82;;;;;;;21.10;35.37;100745.00;4972448;28;20046;-61
2022/05/07 11:58:47;;;;;;;22.23;10.00;;;;;;;21.05;35.51;100741.63;4963230;28;20034;-60
2022/05/07 12:01:18;;;;;;;26.23;10.90;;;;;;;21.06;35.78;100749.59;4962030;28;20434;-61
2022/05/07 12:03:46;;;;;;;30.40;11.57;;;;;;;21.00;35.46;100750.91;4959097;28;20035;-61
2022/05/07 12:06:26;;;;;;;37.67;12.20;;;;;;;20.83;35.64;100756.56;4959304;28;20034;-58